createdAt,value
2022-09-11T00:01:00.819Z,18.66
2022-09-11T00:03:31.417Z,18.39
2022-09-11T00:06:03.565Z,18.34
2022-09-11T00:08:32.099Z,18.40
2022-09-11T00:11:05.350Z,18.48
2022-09-11T00:13:33.076Z,18.29
2022-09-11T00:16:01.684Z,18.41
2022-09-11T00:18:30.995Z,18.59
2022-09-11T00:20:59.452Z,18.69
2022-09-11T00:23:28.476Z,18.78
2022-09-11T00:25:56.302Z,18.77
2022-09-11T00:28:26.374Z,18.65
2022-09-11T00:30:59.669Z,18.60
2022-09-11T00:33:28.008Z,18.51
2022-09-11T00:35:58.831Z,18.56
2022-09-11T00:38:27.120Z,18.73
2022-09-11T00:40:57.849Z,18.71
2022-09-11T00:43:26.985Z,18.73
2022-09-11T00:45:59.771Z,18.62
2022-09-11T00:48:31.597Z,18.68
2022-09-11T00:51:03.846Z,18.60
2022-09-11T00:53:37.115Z,18.19
2022-09-11T00:56:07.099Z,18.11
2022-09-11T00:58:39.325Z,18.19
2022-09-11T01:01:09.113Z,18.21
2022-09-11T01:03:37.039Z,18.07
2022-09-11T01:06:07.760Z,18.02
2022-09-11T01:08:38.402Z,18.09
2022-09-11T01:11:28.079Z,18.04
2022-09-11T01:14:04.699Z,18.23
2022-09-11T01:16:39.603Z,18.20
2022-09-11T01:19:20.175Z,18.24
2022-09-11T01:22:05.725Z,18.14
2022-09-11T01:24:56.410Z,17.95
2022-09-11T01:27:41.944Z,17.93
2022-09-11T01:30:12.392Z,17.99
2022-09-11T01:32:51.537Z,18.25
2022-09-11T01:35:24.951Z,18.23
2022-09-11T01:37:58.241Z,18.13
2022-09-11T01:40:32.988Z,18.22
2022-09-11T01:43:07.122Z,18.20
2022-09-11T01:45:37.244Z,18.31
2022-09-11T01:48:09.029Z,18.06
2022-09-11T01:50:41.372Z,18.26
2022-09-11T01:53:13.018Z,18.32
2022-09-11T01:55:47.104Z,18.27
2022-09-11T01:58:23.801Z,18.32
2022-09-11T02:00:55.965Z,18.20
2022-09-11T02:03:28.038Z,18.18
2022-09-11T02:05:59.870Z,18.24
2022-09-11T02:08:31.430Z,18.09
2022-09-11T02:11:04.381Z,17.86
2022-09-11T02:13:38.418Z,17.79
2022-09-11T02:16:22.849Z,17.63
2022-09-11T02:19:01.049Z,17.68
2022-09-11T02:21:29.209Z,17.64
2022-09-11T02:23:57.322Z,17.86
2022-09-11T02:26:27.392Z,18.02
2022-09-11T02:28:56.808Z,17.99
2022-09-11T02:31:25.486Z,17.98
2022-09-11T02:33:53.339Z,17.68
2022-09-11T02:36:42.182Z,17.65
2022-09-11T02:39:24.933Z,17.58
2022-09-11T02:42:08.876Z,17.49
2022-09-11T02:44:46.293Z,17.44
2022-09-11T02:47:26.249Z,17.42
2022-09-11T02:50:06.320Z,17.51
2022-09-11T02:52:48.456Z,17.60
2022-09-11T02:55:23.716Z,17.35
2022-09-11T02:57:59.231Z,17.16
2022-09-11T03:00:30.122Z,17.16
2022-09-11T03:02:59.247Z,17.48
2022-09-11T03:05:28.461Z,17.58
2022-09-11T03:07:57.728Z,17.67
2022-09-11T03:10:25.723Z,17.74
2022-09-11T03:12:54.710Z,17.85
2022-09-11T03:15:23.596Z,17.50
2022-09-11T03:17:54.099Z,17.38
2022-09-11T03:20:22.029Z,17.49
2022-09-11T03:22:50.151Z,17.27
2022-09-11T03:25:17.968Z,17.28
2022-09-11T03:27:47.722Z,17.28
2022-09-11T03:30:15.690Z,17.17
2022-09-11T03:32:43.528Z,17.32
2022-09-11T03:35:15.144Z,17.19
2022-09-11T03:37:43.247Z,17.39
2022-09-11T03:40:11.682Z,17.55
2022-09-11T03:42:39.737Z,17.51
2022-09-11T03:45:08.285Z,17.31
2022-09-11T03:47:37.287Z,17.15
2022-09-11T03:50:06.100Z,16.76
2022-09-11T03:52:36.165Z,16.99
2022-09-11T03:55:04.450Z,17.12
2022-09-11T03:57:34.100Z,17.25
2022-09-11T04:00:03.171Z,16.94
2022-09-11T04:02:47.983Z,16.94
2022-09-11T04:05:26.104Z,16.75
2022-09-11T04:07:56.297Z,16.93
2022-09-11T04:10:25.838Z,16.79
2022-09-11T04:12:54.079Z,16.80
2022-09-11T04:15:23.177Z,17.07
2022-09-11T04:17:50.975Z,16.91
2022-09-11T04:20:19.175Z,17.03
2022-09-11T04:22:47.743Z,16.98
2022-09-11T04:25:17.136Z,17.07
2022-09-11T04:27:44.939Z,17.13
2022-09-11T04:30:16.803Z,17.19
2022-09-11T04:32:46.260Z,17.19
2022-09-11T04:35:14.596Z,17.17
2022-09-11T04:37:50.644Z,16.99
2022-09-11T04:40:19.940Z,17.03
2022-09-11T04:42:48.297Z,16.95
2022-09-11T04:45:16.294Z,16.94
2022-09-11T04:47:44.260Z,16.89
2022-09-11T04:50:14.102Z,17.11
2022-09-11T04:52:46.167Z,17.06
2022-09-11T04:55:14.049Z,16.99
2022-09-11T04:57:43.260Z,17.07
2022-09-11T05:00:12.629Z,17.09
2022-09-11T05:02:40.598Z,17.25
2022-09-11T05:05:10.100Z,17.20
2022-09-11T05:07:38.342Z,17.22
2022-09-11T05:10:08.058Z,17.31
2022-09-11T05:12:35.895Z,17.54
2022-09-11T05:15:05.771Z,17.40
2022-09-11T05:17:34.280Z,17.67
2022-09-11T05:20:02.677Z,17.75
2022-09-11T05:22:31.900Z,17.51
2022-09-11T05:25:02.004Z,17.48
2022-09-11T05:27:29.949Z,17.56
2022-09-11T05:29:57.808Z,17.46
2022-09-11T05:32:27.023Z,17.28
2022-09-11T05:34:56.032Z,17.35
2022-09-11T05:37:24.677Z,17.53
2022-09-11T05:39:53.895Z,17.36
2022-09-11T05:42:21.814Z,17.41
2022-09-11T05:44:53.293Z,17.53
2022-09-11T05:47:22.033Z,17.46
2022-09-11T05:49:54.117Z,17.43
2022-09-11T05:52:22.017Z,17.63
2022-09-11T05:54:53.629Z,17.71
2022-09-11T05:57:21.572Z,17.73
2022-09-11T05:59:49.679Z,17.62
2022-09-11T06:02:19.591Z,17.83
2022-09-11T06:04:56.475Z,18.01
2022-09-11T06:07:26.789Z,17.97
2022-09-11T06:09:56.310Z,18.03
2022-09-11T06:12:27.310Z,17.98
2022-09-11T06:14:55.956Z,18.21
2022-09-11T06:17:24.290Z,17.93
2022-09-11T06:19:52.426Z,17.88
2022-09-11T06:22:23.152Z,17.87
2022-09-11T06:24:53.738Z,18.03
2022-09-11T06:27:21.742Z,18.12
2022-09-11T06:29:51.264Z,18.10
2022-09-11T06:32:21.425Z,18.26
2022-09-11T06:34:49.462Z,18.23
2022-09-11T06:37:17.450Z,18.15
2022-09-11T06:39:46.719Z,18.14
2022-09-11T06:42:21.639Z,18.08
2022-09-11T06:44:52.023Z,18.16
2022-09-11T06:47:21.603Z,18.33
2022-09-11T06:49:49.544Z,18.22
2022-09-11T06:52:34.518Z,18.61
2022-09-11T06:55:13.458Z,18.52
2022-09-11T06:57:46.506Z,18.57
2022-09-11T07:00:18.248Z,18.55
2022-09-11T07:02:46.441Z,18.82
2022-09-11T07:05:15.795Z,18.71
2022-09-11T07:07:48.570Z,18.55
2022-09-11T07:10:18.971Z,18.50
2022-09-11T07:12:54.154Z,18.90
2022-09-11T07:15:22.421Z,18.80
2022-09-11T07:17:50.364Z,18.68
2022-09-11T07:20:18.686Z,18.57
2022-09-11T07:22:46.732Z,18.71
2022-09-11T07:25:18.260Z,18.76
2022-09-11T07:27:47.696Z,18.47
2022-09-11T07:30:16.464Z,18.80
2022-09-11T07:32:46.323Z,18.73
2022-09-11T07:35:17.551Z,18.67
2022-09-11T07:37:50.213Z,18.92
2022-09-11T07:40:19.971Z,18.94
2022-09-11T07:42:47.783Z,18.97
2022-09-11T07:45:17.919Z,19.19
2022-09-11T07:47:48.804Z,19.51
2022-09-11T07:50:18.050Z,19.79
2022-09-11T07:52:46.829Z,19.53
2022-09-11T07:55:15.341Z,19.66
2022-09-11T07:57:46.623Z,19.59
2022-09-11T08:00:16.741Z,20.01
2022-09-11T08:02:58.895Z,19.69
2022-09-11T08:05:33.652Z,19.70
2022-09-11T08:08:01.625Z,19.89
2022-09-11T08:10:30.754Z,19.72
2022-09-11T08:13:01.919Z,19.94
2022-09-11T08:15:33.706Z,19.55
2022-09-11T08:18:03.618Z,19.79
2022-09-11T08:20:32.545Z,19.73
2022-09-11T08:23:00.540Z,19.90
2022-09-11T08:25:28.655Z,19.80
2022-09-11T08:27:58.145Z,20.10
2022-09-11T08:30:28.999Z,19.96
2022-09-11T08:32:57.551Z,20.07
2022-09-11T08:35:26.809Z,20.12
2022-09-11T08:37:55.531Z,20.07
2022-09-11T08:40:24.237Z,20.11
2022-09-11T08:42:53.455Z,19.78
2022-09-11T08:45:26.441Z,19.70
2022-09-11T08:47:58.416Z,19.82
2022-09-11T08:50:28.799Z,20.23
2022-09-11T08:53:02.967Z,19.90
2022-09-11T08:55:36.643Z,19.94
2022-09-11T08:58:15.521Z,19.83
2022-09-11T09:00:52.162Z,20.42
2022-09-11T09:03:43.289Z,20.58
2022-09-11T09:06:45.117Z,20.34
2022-09-11T09:09:22.066Z,20.99
2022-09-11T09:11:57.559Z,20.45
2022-09-11T09:14:49.529Z,20.47
2022-09-11T09:17:22.794Z,20.46
2022-09-11T09:20:01.519Z,20.21
2022-09-11T09:22:41.067Z,20.36
2022-09-11T09:25:14.068Z,20.36
2022-09-11T09:27:49.291Z,20.33
2022-09-11T09:30:21.973Z,20.37
2022-09-11T09:32:55.297Z,20.36
2022-09-11T09:35:31.654Z,20.48
2022-09-11T09:38:00.536Z,20.53
2022-09-11T09:40:31.370Z,20.63
2022-09-11T09:43:24.046Z,20.77
2022-09-11T09:46:05.255Z,20.88
2022-09-11T09:48:38.396Z,21.32
2022-09-11T09:51:13.317Z,21.01
2022-09-11T09:53:46.344Z,21.48
2022-09-11T09:56:17.279Z,21.56
2022-09-11T09:58:51.892Z,21.86
2022-09-11T10:01:46.606Z,21.65
2022-09-11T10:04:18.206Z,20.96
2022-09-11T10:06:49.480Z,20.90
2022-09-11T10:09:26.876Z,20.79
2022-09-11T10:12:02.963Z,20.47
2022-09-11T10:14:51.115Z,20.64
2022-09-11T10:17:33.358Z,21.26
2022-09-11T10:20:15.195Z,21.68
2022-09-11T10:22:44.512Z,22.09
2022-09-11T10:25:14.219Z,21.91
2022-09-11T10:27:50.324Z,21.51
2022-09-11T10:30:36.503Z,21.20
2022-09-11T10:33:07.890Z,21.20
2022-09-11T10:35:37.776Z,21.09
2022-09-11T10:38:27.548Z,21.61
2022-09-11T10:40:59.463Z,21.52
2022-09-11T10:43:34.202Z,21.85
2022-09-11T10:46:20.921Z,21.72
2022-09-11T10:48:55.283Z,21.13
2022-09-11T10:51:25.104Z,21.54
2022-09-11T10:54:08.141Z,21.54
2022-09-11T10:56:44.171Z,21.52
2022-09-11T10:59:19.331Z,21.45
2022-09-11T11:01:47.398Z,21.73
2022-09-11T11:04:16.068Z,21.14
2022-09-11T11:06:58.968Z,21.22
2022-09-11T11:09:43.311Z,21.27
2022-09-11T11:12:32.050Z,20.98
2022-09-11T11:15:40.184Z,20.94
2022-09-11T11:18:42.955Z,20.84
2022-09-11T11:21:19.054Z,20.84
2022-09-11T11:24:18.007Z,20.93
2022-09-11T11:27:05.316Z,21.01
2022-09-11T11:30:00.559Z,21.79
2022-09-11T11:32:50.970Z,22.17
2022-09-11T11:35:28.572Z,22.05
2022-09-11T11:38:03.627Z,21.77
2022-09-11T11:40:36.917Z,21.80
2022-09-11T11:43:08.686Z,21.73
2022-09-11T11:45:40.380Z,22.60
2022-09-11T11:48:15.696Z,22.94
2022-09-11T11:50:47.360Z,22.49
2022-09-11T11:53:24.195Z,22.34
2022-09-11T11:56:01.460Z,22.06
2022-09-11T11:58:42.980Z,21.96
2022-09-11T12:01:18.201Z,22.75
2022-09-11T12:03:51.995Z,22.72
2022-09-11T12:06:20.418Z,22.51
2022-09-11T12:08:49.038Z,23.05
2022-09-11T12:11:23.612Z,22.28
2022-09-11T12:13:55.350Z,22.85
2022-09-11T12:16:28.994Z,22.75
2022-09-11T12:19:07.658Z,22.70
2022-09-11T12:21:39.392Z,22.40
2022-09-11T12:24:17.560Z,22.44
2022-09-11T12:26:45.797Z,22.39
2022-09-11T12:29:50.556Z,22.25
2022-09-11T12:32:45.047Z,22.36
2022-09-11T12:35:20.788Z,22.16
2022-09-11T12:37:55.727Z,22.22
2022-09-11T12:40:33.173Z,22.02
2022-09-11T12:43:18.709Z,22.13
2022-09-11T12:45:48.448Z,22.13
2022-09-11T12:48:21.691Z,22.02
2022-09-11T12:50:51.740Z,22.07
2022-09-11T12:53:24.275Z,22.06
2022-09-11T12:55:59.850Z,22.05
2022-09-11T12:58:34.011Z,22.02
2022-09-11T13:01:06.167Z,21.93
2022-09-11T13:03:37.687Z,21.98
2022-09-11T13:06:09.952Z,22.09
2022-09-11T13:08:41.740Z,22.16
2022-09-11T13:11:39.732Z,22.17
2022-09-11T13:14:49.389Z,22.05
2022-09-11T13:17:25.811Z,22.05
2022-09-11T13:20:10.543Z,21.66
2022-09-11T13:22:39.334Z,21.96
2022-09-11T13:25:14.660Z,21.89
2022-09-11T13:27:45.204Z,22.09
2022-09-11T13:30:15.701Z,22.00
2022-09-11T13:32:45.345Z,21.92
2022-09-11T13:35:17.947Z,21.87
2022-09-11T13:37:54.244Z,21.68
2022-09-11T13:40:25.557Z,21.90
2022-09-11T13:42:53.915Z,21.90
2022-09-11T13:45:22.359Z,21.97
2022-09-11T13:47:50.396Z,22.01
2022-09-11T13:50:20.890Z,22.02
2022-09-11T13:52:50.291Z,22.19
2022-09-11T13:55:20.719Z,22.57
2022-09-11T13:57:54.673Z,22.52
2022-09-11T14:00:48.247Z,22.13
2022-09-11T14:03:24.422Z,22.21
2022-09-11T14:05:55.647Z,22.28
2022-09-11T14:08:29.493Z,22.09
2022-09-11T14:11:01.141Z,22.40
2022-09-11T14:13:34.263Z,21.88
2022-09-11T14:16:06.501Z,21.93
2022-09-11T14:18:41.853Z,21.93
2022-09-11T14:21:17.058Z,21.97
2022-09-11T14:23:48.512Z,21.98
2022-09-11T14:26:18.506Z,22.05
2022-09-11T14:29:05.162Z,21.94
2022-09-11T14:31:36.310Z,21.86
2022-09-11T14:34:12.294Z,22.00
2022-09-11T14:36:45.131Z,21.94
2022-09-11T14:39:16.671Z,21.68
2022-09-11T14:41:45.308Z,21.77
2022-09-11T14:44:15.642Z,22.03
2022-09-11T14:46:43.643Z,21.91
2022-09-11T14:49:12.820Z,21.85
2022-09-11T14:51:43.148Z,21.72
2022-09-11T14:54:15.950Z,21.90
2022-09-11T14:56:44.766Z,22.01
2022-09-11T14:59:14.004Z,22.10
2022-09-11T15:01:42.215Z,22.22
2022-09-11T15:04:14.132Z,22.08
2022-09-11T15:06:43.381Z,21.90
2022-09-11T15:09:11.177Z,21.95
2022-09-11T15:11:40.083Z,22.25
2022-09-11T15:14:32.245Z,21.90
2022-09-11T15:16:58.153Z,21.89
2022-09-11T15:19:26.199Z,21.77
2022-09-11T15:21:56.592Z,21.78
2022-09-11T15:24:25.467Z,21.76
2022-09-11T15:26:53.843Z,21.50
2022-09-11T15:29:22.593Z,21.59
2022-09-11T15:31:50.540Z,21.77
2022-09-11T15:34:18.961Z,21.75
2022-09-11T15:36:50.796Z,21.46
2022-09-11T15:39:24.284Z,21.69
2022-09-11T15:41:52.102Z,21.55
2022-09-11T15:44:21.882Z,21.52
2022-09-11T15:46:50.148Z,21.57
2022-09-11T15:49:18.268Z,21.26
2022-09-11T15:51:46.107Z,21.20
2022-09-11T15:54:15.623Z,21.42
2022-09-11T15:56:46.775Z,21.19
2022-09-11T15:59:15.969Z,21.24
2022-09-11T16:01:45.442Z,21.18
2022-09-11T16:04:15.418Z,21.13
2022-09-11T16:06:45.855Z,21.21
2022-09-11T16:09:16.099Z,21.03
2022-09-11T16:11:47.825Z,21.19
2022-09-11T16:14:19.010Z,21.03
2022-09-11T16:16:48.000Z,21.09
2022-09-11T16:19:16.474Z,21.00
2022-09-11T16:21:44.550Z,21.09
2022-09-11T16:24:14.686Z,21.14
2022-09-11T16:26:44.043Z,21.16
2022-09-11T16:29:15.588Z,21.03
2022-09-11T16:31:43.847Z,20.83
2022-09-11T16:34:12.250Z,21.03
2022-09-11T16:36:41.800Z,21.06
2022-09-11T16:39:11.769Z,20.92
2022-09-11T16:41:40.292Z,21.18
2022-09-11T16:44:11.474Z,21.12
2022-09-11T16:46:42.261Z,20.83
2022-09-11T16:49:10.642Z,20.78
2022-09-11T16:51:38.452Z,21.07
2022-09-11T16:54:06.330Z,20.96
2022-09-11T16:56:34.331Z,21.01
2022-09-11T16:59:02.206Z,20.93
2022-09-11T17:01:29.993Z,21.06
2022-09-11T17:03:59.436Z,20.92
2022-09-11T17:06:29.907Z,20.79
2022-09-11T17:09:00.190Z,20.88
2022-09-11T17:11:30.989Z,20.82
2022-09-11T17:14:01.016Z,20.79
2022-09-11T17:16:32.212Z,20.89
2022-09-11T17:19:03.253Z,20.99
2022-09-11T17:21:35.798Z,21.01
2022-09-11T17:24:05.390Z,20.97
2022-09-11T17:26:34.166Z,20.88
2022-09-11T17:29:03.514Z,20.94
2022-09-11T17:31:31.973Z,20.85
2022-09-11T17:34:01.241Z,20.90
2022-09-11T17:36:29.237Z,20.89
2022-09-11T17:38:59.430Z,21.01
2022-09-11T17:41:27.696Z,20.59
2022-09-11T17:43:55.528Z,20.81
2022-09-11T17:46:24.829Z,20.69
2022-09-11T17:48:52.823Z,20.50
2022-09-11T17:51:25.082Z,20.66
2022-09-11T17:53:55.417Z,20.77
2022-09-11T17:56:25.874Z,20.71
2022-09-11T17:58:55.190Z,20.77
2022-09-11T18:01:24.115Z,20.70
2022-09-11T18:03:53.009Z,20.53
2022-09-11T18:06:39.827Z,20.62
2022-09-11T18:09:12.047Z,20.51
2022-09-11T18:11:40.804Z,20.48
2022-09-11T18:14:09.309Z,20.48
2022-09-11T18:16:37.659Z,20.47
2022-09-11T18:19:05.813Z,20.33
2022-09-11T18:21:38.219Z,20.29
2022-09-11T18:24:09.856Z,20.32
2022-09-11T18:26:40.158Z,20.24
2022-09-11T18:29:10.451Z,20.11
2022-09-11T18:31:40.974Z,20.11
2022-09-11T18:34:11.921Z,20.10
2022-09-11T18:36:42.419Z,19.95
2022-09-11T18:39:12.304Z,19.91
2022-09-11T18:41:40.500Z,19.80
2022-09-11T18:44:16.149Z,19.74
2022-09-11T18:46:47.191Z,19.67
2022-09-11T18:49:16.221Z,19.61
2022-09-11T18:51:45.561Z,19.63
2022-09-11T18:54:15.600Z,19.64
2022-09-11T18:56:43.967Z,19.68
2022-09-11T18:59:12.506Z,19.64
2022-09-11T19:01:41.345Z,19.63
2022-09-11T19:04:11.144Z,19.59
2022-09-11T19:06:39.711Z,19.51
2022-09-11T19:09:12.622Z,19.44
2022-09-11T19:11:41.189Z,19.44
2022-09-11T19:14:11.627Z,19.46
2022-09-11T19:16:40.246Z,19.35
2022-09-11T19:19:08.953Z,19.38
2022-09-11T19:21:38.019Z,19.38
2022-09-11T19:24:06.863Z,19.25
2022-09-11T19:26:38.871Z,19.18
2022-09-11T19:29:08.651Z,19.17
2022-09-11T19:31:39.229Z,19.23
2022-09-11T19:34:08.789Z,19.20
2022-09-11T19:36:37.395Z,19.23
2022-09-11T19:39:06.409Z,19.19
2022-09-11T19:41:38.651Z,19.15
2022-09-11T19:44:12.077Z,19.16
2022-09-11T19:46:40.960Z,19.17
2022-09-11T19:49:09.770Z,19.19
2022-09-11T19:51:39.153Z,19.19
2022-09-11T19:54:08.065Z,19.21
2022-09-11T19:56:38.614Z,19.14
2022-09-11T19:59:07.171Z,19.15
2022-09-11T20:01:35.156Z,19.07
2022-09-11T20:04:03.469Z,19.10
2022-09-11T20:06:33.717Z,19.06
2022-09-11T20:09:29.386Z,18.99
2022-09-11T20:11:51.649Z,18.96
2022-09-11T20:14:19.720Z,19.05
2022-09-11T20:16:48.780Z,18.95
2022-09-11T20:19:20.709Z,18.96
2022-09-11T20:21:49.195Z,18.94
2022-09-11T20:24:17.163Z,18.92
2022-09-11T20:26:45.074Z,18.94
2022-09-11T20:29:16.615Z,18.92
2022-09-11T20:31:48.995Z,18.85
2022-09-11T20:34:17.400Z,18.68
2022-09-11T20:36:45.602Z,18.69
2022-09-11T20:39:15.096Z,18.70
2022-09-11T20:41:43.296Z,18.67
2022-09-11T20:44:11.193Z,18.58
2022-09-11T20:46:40.586Z,18.70
2022-09-11T20:49:08.573Z,18.58
2022-09-11T20:51:36.444Z,18.60
2022-09-11T20:54:04.653Z,18.57
2022-09-11T20:56:32.876Z,18.65
2022-09-11T20:59:00.966Z,18.55
2022-09-11T21:01:32.390Z,18.57
2022-09-11T21:04:04.339Z,18.54
2022-09-11T21:06:34.063Z,18.53
2022-09-11T21:09:05.562Z,18.52
2022-09-11T21:11:33.624Z,18.54
2022-09-11T21:14:01.967Z,18.54
2022-09-11T21:16:29.870Z,18.48
2022-09-11T21:18:59.677Z,18.40
2022-09-11T21:21:30.184Z,18.46
2022-09-11T21:24:01.186Z,18.40
2022-09-11T21:26:30.199Z,18.36
2022-09-11T21:28:58.924Z,18.37
2022-09-11T21:31:27.621Z,18.42
2022-09-11T21:33:55.474Z,18.43
2022-09-11T21:36:23.859Z,18.43
2022-09-11T21:38:53.379Z,18.54
2022-09-11T21:41:21.422Z,18.47
2022-09-11T21:43:49.341Z,18.62
2022-09-11T21:46:17.242Z,18.56
2022-09-11T21:48:45.165Z,18.61
2022-09-11T21:51:15.554Z,18.55
2022-09-11T21:53:45.322Z,18.48
2022-09-11T21:56:19.924Z,18.56
2022-09-11T21:58:48.282Z,18.54
2022-09-11T22:01:16.182Z,18.61
2022-09-11T22:03:44.601Z,18.59
2022-09-11T22:06:13.452Z,18.51
2022-09-11T22:08:43.150Z,18.56
2022-09-11T22:11:12.017Z,18.58
2022-09-11T22:13:41.611Z,18.45
2022-09-11T22:16:11.406Z,18.58
2022-09-11T22:18:39.990Z,18.56
2022-09-11T22:21:08.748Z,18.56
2022-09-11T22:23:36.885Z,18.58
2022-09-11T22:26:07.437Z,18.66
2022-09-11T22:28:35.666Z,18.65
2022-09-11T22:31:08.958Z,18.48
2022-09-11T22:33:37.711Z,18.56
2022-09-11T22:36:10.480Z,18.44
2022-09-11T22:38:38.336Z,18.49
2022-09-11T22:41:07.294Z,18.44
2022-09-11T22:43:35.200Z,18.51
2022-09-11T22:46:03.213Z,18.48
2022-09-11T22:48:32.816Z,18.58
2022-09-11T22:51:00.887Z,18.52
2022-09-11T22:53:29.484Z,18.51
2022-09-11T22:55:57.693Z,18.42
2022-09-11T22:58:25.644Z,18.63
2022-09-11T23:00:55.837Z,18.51
2022-09-11T23:03:24.134Z,18.51
2022-09-11T23:06:15.340Z,18.55
2022-09-11T23:08:45.623Z,18.34
2022-09-11T23:11:15.214Z,18.29
2022-09-11T23:13:44.053Z,18.29
2022-09-11T23:16:13.776Z,18.28
2022-09-11T23:18:42.026Z,18.27
2022-09-11T23:21:12.269Z,18.18
2022-09-11T23:23:42.896Z,18.23
2022-09-11T23:26:11.062Z,18.22
2022-09-11T23:28:39.756Z,18.00
2022-09-11T23:31:13.404Z,17.95
2022-09-11T23:33:41.862Z,17.87
2022-09-11T23:36:13.586Z,17.88
2022-09-11T23:38:41.898Z,17.90
2022-09-11T23:41:09.811Z,17.90
2022-09-11T23:43:37.661Z,17.82
2022-09-11T23:46:05.630Z,17.80
2022-09-11T23:48:33.529Z,17.79
2022-09-11T23:51:01.982Z,17.78
2022-09-11T23:53:31.560Z,17.66
2022-09-11T23:55:59.692Z,17.64
2022-09-11T23:58:27.830Z,17.59
